sensor_id;sensor_type;location;lat;lon;timestamp;P1;durP1;ratioP1;P2;durP2;ratioP2
40701;SDS011;26387;50.114;8.662;2022-08-02T00:01:34;5.13;;;2.00;;
40701;SDS011;26387;50.114;8.662;2022-08-02T00:04:00;3.08;;;2.13;;
40701;SDS011;26387;50.114;8.662;2022-08-02T00:06:25;2.03;;;1.75;;
40701;SDS011;26387;50.114;8.662;2022-08-02T00:08:51;2.20;;;2.00;;
40701;SDS011;26387;50.114;8.662;2022-08-02T00:11:18;2.65;;;2.20;;
40701;SDS011;26387;50.114;8.662;2022-08-02T00:13:43;2.47;;;1.80;;
40701;SDS011;26387;50.114;8.662;2022-08-02T00:16:09;2.50;;;1.63;;
40701;SDS011;26387;50.114;8.662;2022-08-02T00:18:34;3.80;;;2.00;;
40701;SDS011;26387;50.114;8.662;2022-08-02T00:21:00;2.10;;;1.90;;
40701;SDS011;26387;50.114;8.662;2022-08-02T00:23:26;2.80;;;1.98;;
40701;SDS011;26387;50.114;8.662;2022-08-02T00:25:51;2.92;;;2.05;;
40701;SDS011;26387;50.114;8.662;2022-08-02T00:28:17;2.45;;;1.90;;
40701;SDS011;26387;50.114;8.662;2022-08-02T00:30:42;2.15;;;1.80;;
40701;SDS011;26387;50.114;8.662;2022-08-02T00:33:08;2.13;;;1.95;;
40701;SDS011;26387;50.114;8.662;2022-08-02T00:35:34;3.35;;;2.28;;
40701;SDS011;26387;50.114;8.662;2022-08-02T00:37:59;2.90;;;1.95;;
40701;SDS011;26387;50.114;8.662;2022-08-02T00:40:26;4.20;;;2.13;;
40701;SDS011;26387;50.114;8.662;2022-08-02T00:42:59;3.92;;;2.10;;
40701;SDS011;26387;50.114;8.662;2022-08-02T00:45:28;2.20;;;2.03;;
40701;SDS011;26387;50.114;8.662;2022-08-02T00:47:54;2.67;;;1.88;;
40701;SDS011;26387;50.114;8.662;2022-08-02T00:50:20;2.92;;;2.05;;
40701;SDS011;26387;50.114;8.662;2022-08-02T00:52:45;2.20;;;1.90;;
40701;SDS011;26387;50.114;8.662;2022-08-02T00:55:11;2.83;;;2.08;;
40701;SDS011;26387;50.114;8.662;2022-08-02T00:57:36;4.75;;;2.38;;
40701;SDS011;26387;50.114;8.662;2022-08-02T01:00:03;4.10;;;2.40;;
40701;SDS011;26387;50.114;8.662;2022-08-02T01:02:30;3.42;;;2.05;;
40701;SDS011;26387;50.114;8.662;2022-08-02T01:04:55;2.72;;;2.30;;
40701;SDS011;26387;50.114;8.662;2022-08-02T01:07:21;2.63;;;1.90;;
40701;SDS011;26387;50.114;8.662;2022-08-02T01:09:46;4.68;;;2.40;;
40701;SDS011;26387;50.114;8.662;2022-08-02T01:12:12;2.55;;;2.35;;
40701;SDS011;26387;50.114;8.662;2022-08-02T01:14:39;2.45;;;2.25;;
40701;SDS011;26387;50.114;8.662;2022-08-02T01:19:53;3.22;;;2.55;;
40701;SDS011;26387;50.114;8.662;2022-08-02T01:27:39;2.53;;;2.10;;
40701;SDS011;26387;50.114;8.662;2022-08-02T01:30:13;3.13;;;2.00;;
40701;SDS011;26387;50.114;8.662;2022-08-02T01:32:42;2.53;;;2.15;;
40701;SDS011;26387;50.114;8.662;2022-08-02T01:35:13;4.63;;;2.17;;
40701;SDS011;26387;50.114;8.662;2022-08-02T01:37:44;3.25;;;2.33;;
40701;SDS011;26387;50.114;8.662;2022-08-02T01:40:17;2.83;;;2.35;;
40701;SDS011;26387;50.114;8.662;2022-08-02T01:42:47;4.97;;;2.55;;
40701;SDS011;26387;50.114;8.662;2022-08-02T01:45:16;2.58;;;1.83;;
40701;SDS011;26387;50.114;8.662;2022-08-02T01:47:43;2.75;;;2.00;;
40701;SDS011;26387;50.114;8.662;2022-08-02T01:50:12;3.85;;;2.08;;
40701;SDS011;26387;50.114;8.662;2022-08-02T01:52:42;9.82;;;2.20;;
40701;SDS011;26387;50.114;8.662;2022-08-02T01:55:12;3.88;;;1.90;;
40701;SDS011;26387;50.114;8.662;2022-08-02T01:57:54;2.17;;;1.98;;
40701;SDS011;26387;50.114;8.662;2022-08-02T02:00:23;3.40;;;2.28;;
40701;SDS011;26387;50.114;8.662;2022-08-02T02:02:52;5.72;;;2.30;;
40701;SDS011;26387;50.114;8.662;2022-08-02T02:05:20;2.83;;;2.25;;
40701;SDS011;26387;50.114;8.662;2022-08-02T02:07:49;5.50;;;2.28;;
40701;SDS011;26387;50.114;8.662;2022-08-02T02:10:18;3.45;;;2.45;;
40701;SDS011;26387;50.114;8.662;2022-08-02T02:12:50;3.17;;;1.90;;
40701;SDS011;26387;50.114;8.662;2022-08-02T02:15:17;4.00;;;2.10;;
40701;SDS011;26387;50.114;8.662;2022-08-02T02:17:44;2.78;;;2.50;;
40701;SDS011;26387;50.114;8.662;2022-08-02T02:20:14;2.40;;;2.13;;
40701;SDS011;26387;50.114;8.662;2022-08-02T02:22:41;2.40;;;2.20;;
40701;SDS011;26387;50.114;8.662;2022-08-02T02:25:08;4.25;;;2.35;;
40701;SDS011;26387;50.114;8.662;2022-08-02T02:27:35;2.17;;;2.03;;
40701;SDS011;26387;50.114;8.662;2022-08-02T02:30:02;3.10;;;2.08;;
40701;SDS011;26387;50.114;8.662;2022-08-02T02:32:29;4.95;;;2.10;;
40701;SDS011;26387;50.114;8.662;2022-08-02T02:34:57;2.88;;;1.85;;
40701;SDS011;26387;50.114;8.662;2022-08-02T02:37:25;3.55;;;2.10;;
40701;SDS011;26387;50.114;8.662;2022-08-02T02:39:52;2.92;;;2.58;;
40701;SDS011;26387;50.114;8.662;2022-08-02T02:42:21;2.50;;;2.25;;
40701;SDS011;26387;50.114;8.662;2022-08-02T02:44:52;3.47;;;2.60;;
40701;SDS011;26387;50.114;8.662;2022-08-02T02:47:18;3.50;;;2.38;;
40701;SDS011;26387;50.114;8.662;2022-08-02T02:49:45;2.78;;;2.20;;
40701;SDS011;26387;50.114;8.662;2022-08-02T02:52:13;2.80;;;2.30;;
40701;SDS011;26387;50.114;8.662;2022-08-02T02:54:40;3.10;;;2.47;;
40701;SDS011;26387;50.114;8.662;2022-08-02T02:57:08;2.95;;;2.53;;
40701;SDS011;26387;50.114;8.662;2022-08-02T02:59:35;2.72;;;2.40;;
40701;SDS011;26387;50.114;8.662;2022-08-02T03:02:03;2.72;;;2.47;;
40701;SDS011;26387;50.114;8.662;2022-08-02T03:04:30;4.13;;;2.55;;
40701;SDS011;26387;50.114;8.662;2022-08-02T03:06:56;4.32;;;2.50;;
40701;SDS011;26387;50.114;8.662;2022-08-02T03:09:24;5.03;;;2.65;;
40701;SDS011;26387;50.114;8.662;2022-08-02T03:11:51;4.03;;;2.55;;
40701;SDS011;26387;50.114;8.662;2022-08-02T03:14:18;3.22;;;2.60;;
40701;SDS011;26387;50.114;8.662;2022-08-02T03:16:49;3.90;;;2.75;;
40701;SDS011;26387;50.114;8.662;2022-08-02T03:19:16;3.17;;;2.45;;
40701;SDS011;26387;50.114;8.662;2022-08-02T03:21:42;3.08;;;2.45;;
40701;SDS011;26387;50.114;8.662;2022-08-02T03:24:09;3.17;;;2.53;;
40701;SDS011;26387;50.114;8.662;2022-08-02T03:26:35;3.33;;;2.55;;
40701;SDS011;26387;50.114;8.662;2022-08-02T03:29:01;2.78;;;2.40;;
40701;SDS011;26387;50.114;8.662;2022-08-02T03:31:27;2.85;;;2.30;;
40701;SDS011;26387;50.114;8.662;2022-08-02T03:33:54;3.28;;;2.20;;
40701;SDS011;26387;50.114;8.662;2022-08-02T03:36:21;3.17;;;2.47;;
40701;SDS011;26387;50.114;8.662;2022-08-02T03:38:49;3.33;;;2.50;;
40701;SDS011;26387;50.114;8.662;2022-08-02T03:41:16;4.40;;;2.47;;
40701;SDS011;26387;50.114;8.662;2022-08-02T03:43:44;3.90;;;2.70;;
40701;SDS011;26387;50.114;8.662;2022-08-02T03:46:11;4.25;;;2.78;;
40701;SDS011;26387;50.114;8.662;2022-08-02T03:48:40;3.40;;;2.30;;
40701;SDS011;26387;50.114;8.662;2022-08-02T03:51:06;3.83;;;2.45;;
40701;SDS011;26387;50.114;8.662;2022-08-02T03:53:32;4.40;;;2.60;;
40701;SDS011;26387;50.114;8.662;2022-08-02T03:55:58;3.35;;;2.60;;
40701;SDS011;26387;50.114;8.662;2022-08-02T03:58:25;5.22;;;2.45;;
40701;SDS011;26387;50.114;8.662;2022-08-02T04:00:51;2.70;;;2.50;;
40701;SDS011;26387;50.114;8.662;2022-08-02T04:03:18;4.07;;;2.42;;
40701;SDS011;26387;50.114;8.662;2022-08-02T04:05:43;5.68;;;3.13;;
40701;SDS011;26387;50.114;8.662;2022-08-02T04:08:09;4.85;;;2.70;;
40701;SDS011;26387;50.114;8.662;2022-08-02T04:10:35;2.85;;;2.50;;
40701;SDS011;26387;50.114;8.662;2022-08-02T04:13:21;3.00;;;2.70;;
40701;SDS011;26387;50.114;8.662;2022-08-02T04:15:48;3.97;;;2.75;;
40701;SDS011;26387;50.114;8.662;2022-08-02T04:18:16;3.15;;;2.75;;
40701;SDS011;26387;50.114;8.662;2022-08-02T04:20:44;4.82;;;2.60;;
40701;SDS011;26387;50.114;8.662;2022-08-02T04:23:13;2.70;;;2.50;;
40701;SDS011;26387;50.114;8.662;2022-08-02T04:25:41;3.50;;;2.67;;
40701;SDS011;26387;50.114;8.662;2022-08-02T04:28:07;3.08;;;2.47;;
40701;SDS011;26387;50.114;8.662;2022-08-02T04:30:33;5.15;;;2.50;;
40701;SDS011;26387;50.114;8.662;2022-08-02T04:33:00;3.92;;;2.47;;
40701;SDS011;26387;50.114;8.662;2022-08-02T04:35:26;2.90;;;2.45;;
40701;SDS011;26387;50.114;8.662;2022-08-02T04:37:52;3.25;;;2.90;;
40701;SDS011;26387;50.114;8.662;2022-08-02T04:40:18;6.00;;;2.80;;
40701;SDS011;26387;50.114;8.662;2022-08-02T04:42:43;3.95;;;2.92;;
40701;SDS011;26387;50.114;8.662;2022-08-02T04:45:09;4.53;;;2.65;;
40701;SDS011;26387;50.114;8.662;2022-08-02T04:47:35;4.15;;;2.97;;
40701;SDS011;26387;50.114;8.662;2022-08-02T04:50:01;3.13;;;2.70;;
40701;SDS011;26387;50.114;8.662;2022-08-02T04:52:27;4.10;;;2.67;;
40701;SDS011;26387;50.114;8.662;2022-08-02T04:54:52;3.42;;;2.55;;
40701;SDS011;26387;50.114;8.662;2022-08-02T04:57:18;4.45;;;2.80;;
40701;SDS011;26387;50.114;8.662;2022-08-02T05:00:04;5.53;;;3.00;;
40701;SDS011;26387;50.114;8.662;2022-08-02T05:02:31;3.75;;;2.60;;
40701;SDS011;26387;50.114;8.662;2022-08-02T05:04:57;4.95;;;2.92;;
40701;SDS011;26387;50.114;8.662;2022-08-02T05:07:23;3.45;;;2.78;;
40701;SDS011;26387;50.114;8.662;2022-08-02T05:09:48;3.88;;;2.60;;
40701;SDS011;26387;50.114;8.662;2022-08-02T05:12:14;4.45;;;2.75;;
40701;SDS011;26387;50.114;8.662;2022-08-02T05:14:40;3.60;;;2.92;;
40701;SDS011;26387;50.114;8.662;2022-08-02T05:17:05;3.50;;;2.72;;
40701;SDS011;26387;50.114;8.662;2022-08-02T05:19:31;3.22;;;2.80;;
40701;SDS011;26387;50.114;8.662;2022-08-02T05:21:56;5.03;;;3.03;;
40701;SDS011;26387;50.114;8.662;2022-08-02T05:24:22;4.53;;;2.88;;
40701;SDS011;26387;50.114;8.662;2022-08-02T05:26:47;5.05;;;3.28;;
40701;SDS011;26387;50.114;8.662;2022-08-02T05:29:14;6.57;;;2.60;;
40701;SDS011;26387;50.114;8.662;2022-08-02T05:31:40;6.40;;;3.20;;
40701;SDS011;26387;50.114;8.662;2022-08-02T05:34:06;3.17;;;2.33;;
40701;SDS011;26387;50.114;8.662;2022-08-02T05:36:31;3.72;;;2.70;;
40701;SDS011;26387;50.114;8.662;2022-08-02T05:38:57;5.32;;;2.60;;
40701;SDS011;26387;50.114;8.662;2022-08-02T05:41:23;3.55;;;2.65;;
40701;SDS011;26387;50.114;8.662;2022-08-02T05:43:48;3.80;;;2.75;;
40701;SDS011;26387;50.114;8.662;2022-08-02T05:46:14;4.18;;;2.75;;
40701;SDS011;26387;50.114;8.662;2022-08-02T05:48:39;4.00;;;2.35;;
40701;SDS011;26387;50.114;8.662;2022-08-02T05:51:06;3.30;;;2.72;;
40701;SDS011;26387;50.114;8.662;2022-08-02T05:53:43;12.15;;;3.55;;
40701;SDS011;26387;50.114;8.662;2022-08-02T05:58:48;3.88;;;2.88;;
40701;SDS011;26387;50.114;8.662;2022-08-02T06:01:21;4.05;;;2.80;;
40701;SDS011;26387;50.114;8.662;2022-08-02T06:03:58;4.15;;;2.78;;
40701;SDS011;26387;50.114;8.662;2022-08-02T06:06:28;4.45;;;2.95;;
40701;SDS011;26387;50.114;8.662;2022-08-02T06:08:58;6.35;;;3.05;;
40701;SDS011;26387;50.114;8.662;2022-08-02T06:11:37;3.83;;;2.45;;
40701;SDS011;26387;50.114;8.662;2022-08-02T06:14:05;7.00;;;2.50;;
40701;SDS011;26387;50.114;8.662;2022-08-02T06:16:32;3.03;;;2.42;;
40701;SDS011;26387;50.114;8.662;2022-08-02T06:18:59;4.15;;;2.63;;
40701;SDS011;26387;50.114;8.662;2022-08-02T06:21:25;3.63;;;2.30;;
40701;SDS011;26387;50.114;8.662;2022-08-02T06:23:51;3.65;;;2.60;;
40701;SDS011;26387;50.114;8.662;2022-08-02T06:26:17;3.88;;;2.95;;
40701;SDS011;26387;50.114;8.662;2022-08-02T06:28:45;3.90;;;2.58;;
40701;SDS011;26387;50.114;8.662;2022-08-02T06:31:13;4.10;;;2.40;;
40701;SDS011;26387;50.114;8.662;2022-08-02T06:33:39;3.85;;;2.58;;
40701;SDS011;26387;50.114;8.662;2022-08-02T06:39:03;6.32;;;2.65;;
40701;SDS011;26387;50.114;8.662;2022-08-02T06:44:06;5.68;;;2.63;;
40701;SDS011;26387;50.114;8.662;2022-08-02T06:46:32;5.75;;;2.30;;
40701;SDS011;26387;50.114;8.662;2022-08-02T06:48:58;6.80;;;2.63;;
40701;SDS011;26387;50.114;8.662;2022-08-02T06:51:24;6.35;;;2.78;;
40701;SDS011;26387;50.114;8.662;2022-08-02T06:53:50;6.20;;;2.70;;
40701;SDS011;26387;50.114;8.662;2022-08-02T06:56:16;5.47;;;2.80;;
40701;SDS011;26387;50.114;8.662;2022-08-02T06:58:43;3.70;;;2.38;;
40701;SDS011;26387;50.114;8.662;2022-08-02T07:01:08;4.93;;;2.15;;
40701;SDS011;26387;50.114;8.662;2022-08-02T07:03:35;3.92;;;2.30;;
40701;SDS011;26387;50.114;8.662;2022-08-02T07:06:02;10.65;;;2.58;;
40701;SDS011;26387;50.114;8.662;2022-08-02T07:08:29;5.22;;;2.50;;
40701;SDS011;26387;50.114;8.662;2022-08-02T07:10:58;7.20;;;2.55;;
40701;SDS011;26387;50.114;8.662;2022-08-02T07:13:25;8.13;;;2.42;;
40701;SDS011;26387;50.114;8.662;2022-08-02T07:15:51;6.70;;;2.40;;
40701;SDS011;26387;50.114;8.662;2022-08-02T07:18:17;4.50;;;2.65;;
40701;SDS011;26387;50.114;8.662;2022-08-02T07:20:44;3.97;;;2.33;;
40701;SDS011;26387;50.114;8.662;2022-08-02T07:23:10;4.05;;;2.28;;
40701;SDS011;26387;50.114;8.662;2022-08-02T07:25:35;4.93;;;2.17;;
40701;SDS011;26387;50.114;8.662;2022-08-02T07:28:01;4.70;;;2.85;;
40701;SDS011;26387;50.114;8.662;2022-08-02T07:30:28;4.85;;;2.40;;
40701;SDS011;26387;50.114;8.662;2022-08-02T07:32:55;6.88;;;2.80;;
40701;SDS011;26387;50.114;8.662;2022-08-02T07:35:21;4.43;;;2.55;;
40701;SDS011;26387;50.114;8.662;2022-08-02T07:37:47;6.80;;;3.03;;
40701;SDS011;26387;50.114;8.662;2022-08-02T07:40:13;3.90;;;2.67;;
40701;SDS011;26387;50.114;8.662;2022-08-02T07:42:39;5.32;;;2.80;;
40701;SDS011;26387;50.114;8.662;2022-08-02T07:45:05;8.18;;;2.70;;
40701;SDS011;26387;50.114;8.662;2022-08-02T07:47:31;4.85;;;2.65;;
40701;SDS011;26387;50.114;8.662;2022-08-02T07:50:01;4.03;;;2.63;;
40701;SDS011;26387;50.114;8.662;2022-08-02T07:52:27;4.30;;;2.80;;
40701;SDS011;26387;50.114;8.662;2022-08-02T07:54:53;6.07;;;2.40;;
40701;SDS011;26387;50.114;8.662;2022-08-02T07:57:18;7.43;;;2.50;;
40701;SDS011;26387;50.114;8.662;2022-08-02T07:59:45;5.55;;;2.83;;
40701;SDS011;26387;50.114;8.662;2022-08-02T08:02:12;19.25;;;4.72;;
40701;SDS011;26387;50.114;8.662;2022-08-02T08:04:38;10.10;;;2.85;;
40701;SDS011;26387;50.114;8.662;2022-08-02T08:07:04;10.45;;;2.88;;
40701;SDS011;26387;50.114;8.662;2022-08-02T08:09:34;12.52;;;2.90;;
40701;SDS011;26387;50.114;8.662;2022-08-02T08:12:04;9.73;;;2.58;;
40701;SDS011;26387;50.114;8.662;2022-08-02T08:14:30;5.40;;;2.35;;
40701;SDS011;26387;50.114;8.662;2022-08-02T08:16:55;7.05;;;2.30;;
40701;SDS011;26387;50.114;8.662;2022-08-02T08:19:21;10.25;;;2.22;;
40701;SDS011;26387;50.114;8.662;2022-08-02T08:21:47;8.23;;;2.45;;
40701;SDS011;26387;50.114;8.662;2022-08-02T08:24:12;3.95;;;2.53;;
40701;SDS011;26387;50.114;8.662;2022-08-02T08:26:38;6.22;;;2.47;;
40701;SDS011;26387;50.114;8.662;2022-08-02T08:29:04;4.13;;;2.10;;
40701;SDS011;26387;50.114;8.662;2022-08-02T08:31:31;7.53;;;2.33;;
40701;SDS011;26387;50.114;8.662;2022-08-02T08:33:57;7.55;;;2.30;;
40701;SDS011;26387;50.114;8.662;2022-08-02T08:36:23;4.80;;;2.38;;
40701;SDS011;26387;50.114;8.662;2022-08-02T08:38:48;8.07;;;2.33;;
40701;SDS011;26387;50.114;8.662;2022-08-02T08:41:15;5.38;;;2.40;;
40701;SDS011;26387;50.114;8.662;2022-08-02T08:43:41;6.30;;;2.67;;
40701;SDS011;26387;50.114;8.662;2022-08-02T08:46:08;6.05;;;2.83;;
40701;SDS011;26387;50.114;8.662;2022-08-02T08:48:36;4.97;;;2.28;;
40701;SDS011;26387;50.114;8.662;2022-08-02T08:51:09;4.22;;;1.85;;
40701;SDS011;26387;50.114;8.662;2022-08-02T08:53:41;3.70;;;2.28;;
40701;SDS011;26387;50.114;8.662;2022-08-02T08:56:08;3.50;;;2.50;;
40701;SDS011;26387;50.114;8.662;2022-08-02T08:58:37;5.80;;;2.20;;
40701;SDS011;26387;50.114;8.662;2022-08-02T09:01:03;6.03;;;2.17;;
40701;SDS011;26387;50.114;8.662;2022-08-02T09:03:29;3.28;;;2.13;;
40701;SDS011;26387;50.114;8.662;2022-08-02T09:05:56;2.97;;;2.30;;
40701;SDS011;26387;50.114;8.662;2022-08-02T09:08:22;7.72;;;2.40;;
40701;SDS011;26387;50.114;8.662;2022-08-02T09:10:48;4.82;;;1.83;;
40701;SDS011;26387;50.114;8.662;2022-08-02T09:13:18;4.30;;;1.70;;
40701;SDS011;26387;50.114;8.662;2022-08-02T09:15:45;2.70;;;1.70;;
40701;SDS011;26387;50.114;8.662;2022-08-02T09:18:36;4.80;;;1.95;;
40701;SDS011;26387;50.114;8.662;2022-08-02T09:21:04;2.83;;;1.90;;
40701;SDS011;26387;50.114;8.662;2022-08-02T09:23:33;3.88;;;2.10;;
40701;SDS011;26387;50.114;8.662;2022-08-02T09:26:04;9.02;;;2.22;;
40701;SDS011;26387;50.114;8.662;2022-08-02T09:28:32;6.25;;;2.08;;
40701;SDS011;26387;50.114;8.662;2022-08-02T09:31:07;3.35;;;2.00;;
40701;SDS011;26387;50.114;8.662;2022-08-02T09:33:38;3.40;;;1.60;;
40701;SDS011;26387;50.114;8.662;2022-08-02T09:36:08;5.30;;;1.52;;
40701;SDS011;26387;50.114;8.662;2022-08-02T09:38:36;6.13;;;1.98;;
40701;SDS011;26387;50.114;8.662;2022-08-02T09:41:03;4.53;;;1.98;;
40701;SDS011;26387;50.114;8.662;2022-08-02T09:43:36;4.68;;;2.00;;
40701;SDS011;26387;50.114;8.662;2022-08-02T09:46:17;6.53;;;2.20;;
40701;SDS011;26387;50.114;8.662;2022-08-02T09:48:45;6.53;;;2.03;;
40701;SDS011;26387;50.114;8.662;2022-08-02T09:51:38;8.13;;;1.85;;
40701;SDS011;26387;50.114;8.662;2022-08-02T09:54:06;4.25;;;1.95;;
40701;SDS011;26387;50.114;8.662;2022-08-02T09:56:42;2.00;;;1.73;;
40701;SDS011;26387;50.114;8.662;2022-08-02T09:59:10;6.35;;;1.98;;
40701;SDS011;26387;50.114;8.662;2022-08-02T10:01:37;3.53;;;1.95;;
40701;SDS011;26387;50.114;8.662;2022-08-02T10:04:07;4.55;;;1.77;;
40701;SDS011;26387;50.114;8.662;2022-08-02T10:06:35;5.90;;;2.58;;
40701;SDS011;26387;50.114;8.662;2022-08-02T10:09:04;7.70;;;1.90;;
40701;SDS011;26387;50.114;8.662;2022-08-02T10:11:31;3.17;;;2.10;;
40701;SDS011;26387;50.114;8.662;2022-08-02T10:13:59;3.05;;;1.90;;
40701;SDS011;26387;50.114;8.662;2022-08-02T10:16:27;3.15;;;1.75;;
40701;SDS011;26387;50.114;8.662;2022-08-02T10:18:53;3.22;;;1.88;;
40701;SDS011;26387;50.114;8.662;2022-08-02T10:24:10;2.65;;;1.67;;
40701;SDS011;26387;50.114;8.662;2022-08-02T10:26:38;5.05;;;2.10;;
40701;SDS011;26387;50.114;8.662;2022-08-02T10:29:06;3.67;;;1.70;;
40701;SDS011;26387;50.114;8.662;2022-08-02T10:31:46;3.88;;;1.75;;
40701;SDS011;26387;50.114;8.662;2022-08-02T10:34:19;6.53;;;2.20;;
40701;SDS011;26387;50.114;8.662;2022-08-02T10:36:48;10.88;;;1.70;;
40701;SDS011;26387;50.114;8.662;2022-08-02T10:39:15;4.18;;;1.70;;
40701;SDS011;26387;50.114;8.662;2022-08-02T10:44:29;2.90;;;2.05;;
40701;SDS011;26387;50.114;8.662;2022-08-02T10:47:17;6.78;;;1.85;;
40701;SDS011;26387;50.114;8.662;2022-08-02T10:52:16;3.58;;;1.60;;
40701;SDS011;26387;50.114;8.662;2022-08-02T10:54:46;2.90;;;1.85;;
40701;SDS011;26387;50.114;8.662;2022-08-02T10:57:20;4.00;;;1.65;;
40701;SDS011;26387;50.114;8.662;2022-08-02T10:59:49;3.95;;;2.20;;
40701;SDS011;26387;50.114;8.662;2022-08-02T11:02:33;3.17;;;1.80;;
40701;SDS011;26387;50.114;8.662;2022-08-02T11:07:40;2.67;;;1.85;;
40701;SDS011;26387;50.114;8.662;2022-08-02T11:10:27;3.08;;;1.60;;
40701;SDS011;26387;50.114;8.662;2022-08-02T11:15:29;2.20;;;1.60;;
40701;SDS011;26387;50.114;8.662;2022-08-02T11:18:10;5.25;;;1.35;;
40701;SDS011;26387;50.114;8.662;2022-08-02T11:20:36;3.25;;;1.73;;
40701;SDS011;26387;50.114;8.662;2022-08-02T11:23:32;2.30;;;1.45;;
40701;SDS011;26387;50.114;8.662;2022-08-02T11:26:00;2.63;;;1.95;;
40701;SDS011;26387;50.114;8.662;2022-08-02T11:28:29;2.03;;;1.60;;
40701;SDS011;26387;50.114;8.662;2022-08-02T11:30:56;2.38;;;1.77;;
40701;SDS011;26387;50.114;8.662;2022-08-02T11:33:29;3.03;;;1.50;;
40701;SDS011;26387;50.114;8.662;2022-08-02T11:35:59;3.58;;;1.45;;
40701;SDS011;26387;50.114;8.662;2022-08-02T11:38:26;2.13;;;1.50;;
40701;SDS011;26387;50.114;8.662;2022-08-02T11:40:51;4.40;;;1.85;;
40701;SDS011;26387;50.114;8.662;2022-08-02T11:43:18;4.65;;;1.92;;
40701;SDS011;26387;50.114;8.662;2022-08-02T11:45:45;4.97;;;1.85;;
40701;SDS011;26387;50.114;8.662;2022-08-02T11:48:12;2.92;;;1.48;;
40701;SDS011;26387;50.114;8.662;2022-08-02T11:50:37;3.92;;;1.65;;
40701;SDS011;26387;50.114;8.662;2022-08-02T11:53:13;2.13;;;1.42;;
40701;SDS011;26387;50.114;8.662;2022-08-02T11:55:40;2.05;;;1.85;;
40701;SDS011;26387;50.114;8.662;2022-08-02T11:58:06;2.75;;;1.60;;
40701;SDS011;26387;50.114;8.662;2022-08-02T12:00:35;5.32;;;1.65;;
40701;SDS011;26387;50.114;8.662;2022-08-02T12:03:01;1.88;;;1.38;;
40701;SDS011;26387;50.114;8.662;2022-08-02T12:05:27;3.75;;;1.50;;
40701;SDS011;26387;50.114;8.662;2022-08-02T12:07:53;4.15;;;1.50;;
40701;SDS011;26387;50.114;8.662;2022-08-02T12:10:19;2.45;;;1.25;;
40701;SDS011;26387;50.114;8.662;2022-08-02T12:12:50;3.08;;;1.50;;
40701;SDS011;26387;50.114;8.662;2022-08-02T12:15:34;1.95;;;1.60;;
40701;SDS011;26387;50.114;8.662;2022-08-02T12:18:01;2.13;;;1.50;;
40701;SDS011;26387;50.114;8.662;2022-08-02T12:20:46;4.10;;;1.48;;
40701;SDS011;26387;50.114;8.662;2022-08-02T12:23:12;3.80;;;1.60;;
40701;SDS011;26387;50.114;8.662;2022-08-02T12:25:38;1.85;;;1.27;;
40701;SDS011;26387;50.114;8.662;2022-08-02T12:28:20;5.18;;;1.60;;
40701;SDS011;26387;50.114;8.662;2022-08-02T12:30:59;3.75;;;1.45;;
40701;SDS011;26387;50.114;8.662;2022-08-02T12:33:29;3.42;;;1.92;;
40701;SDS011;26387;50.114;8.662;2022-08-02T12:41:14;6.68;;;1.85;;
40701;SDS011;26387;50.114;8.662;2022-08-02T12:43:41;4.72;;;1.67;;
40701;SDS011;26387;50.114;8.662;2022-08-02T12:46:13;5.30;;;1.52;;
40701;SDS011;26387;50.114;8.662;2022-08-02T12:48:41;1.85;;;1.45;;
40701;SDS011;26387;50.114;8.662;2022-08-02T12:53:49;3.63;;;1.50;;
40701;SDS011;26387;50.114;8.662;2022-08-02T12:56:31;1.77;;;1.50;;
40701;SDS011;26387;50.114;8.662;2022-08-02T12:59:00;3.88;;;1.60;;
40701;SDS011;26387;50.114;8.662;2022-08-02T13:01:26;3.75;;;1.90;;
40701;SDS011;26387;50.114;8.662;2022-08-02T13:03:54;1.50;;;1.40;;
40701;SDS011;26387;50.114;8.662;2022-08-02T13:06:20;6.90;;;1.65;;
40701;SDS011;26387;50.114;8.662;2022-08-02T13:08:47;1.52;;;1.40;;
40701;SDS011;26387;50.114;8.662;2022-08-02T13:11:14;3.13;;;1.67;;
40701;SDS011;26387;50.114;8.662;2022-08-02T13:13:40;3.35;;;1.45;;
40701;SDS011;26387;50.114;8.662;2022-08-02T13:16:06;4.43;;;1.70;;
40701;SDS011;26387;50.114;8.662;2022-08-02T13:18:33;6.80;;;1.65;;
40701;SDS011;26387;50.114;8.662;2022-08-02T13:20:59;2.03;;;1.50;;
40701;SDS011;26387;50.114;8.662;2022-08-02T13:23:25;5.45;;;1.48;;
40701;SDS011;26387;50.114;8.662;2022-08-02T13:25:51;3.58;;;1.38;;
40701;SDS011;26387;50.114;8.662;2022-08-02T13:28:18;4.05;;;1.60;;
40701;SDS011;26387;50.114;8.662;2022-08-02T13:30:45;3.58;;;1.50;;
40701;SDS011;26387;50.114;8.662;2022-08-02T13:33:11;4.72;;;1.50;;
40701;SDS011;26387;50.114;8.662;2022-08-02T13:35:37;4.00;;;1.63;;
40701;SDS011;26387;50.114;8.662;2022-08-02T13:38:03;5.07;;;1.70;;
40701;SDS011;26387;50.114;8.662;2022-08-02T13:40:30;2.65;;;1.60;;
40701;SDS011;26387;50.114;8.662;2022-08-02T13:42:56;4.97;;;1.83;;
40701;SDS011;26387;50.114;8.662;2022-08-02T13:45:22;3.35;;;1.52;;
40701;SDS011;26387;50.114;8.662;2022-08-02T13:47:47;3.78;;;1.60;;
40701;SDS011;26387;50.114;8.662;2022-08-02T13:50:13;3.17;;;1.75;;
40701;SDS011;26387;50.114;8.662;2022-08-02T13:52:39;3.83;;;1.50;;
40701;SDS011;26387;50.114;8.662;2022-08-02T13:55:04;6.13;;;1.80;;
40701;SDS011;26387;50.114;8.662;2022-08-02T13:57:30;2.45;;;1.48;;
40701;SDS011;26387;50.114;8.662;2022-08-02T13:59:56;1.55;;;1.30;;
40701;SDS011;26387;50.114;8.662;2022-08-02T14:02:22;2.17;;;1.40;;
40701;SDS011;26387;50.114;8.662;2022-08-02T14:04:48;4.75;;;1.80;;
40701;SDS011;26387;50.114;8.662;2022-08-02T14:07:14;4.70;;;1.55;;
40701;SDS011;26387;50.114;8.662;2022-08-02T14:09:41;3.22;;;1.58;;
40701;SDS011;26387;50.114;8.662;2022-08-02T14:12:07;2.72;;;1.40;;
40701;SDS011;26387;50.114;8.662;2022-08-02T14:14:34;2.00;;;1.73;;
40701;SDS011;26387;50.114;8.662;2022-08-02T14:17:00;1.70;;;1.60;;
40701;SDS011;26387;50.114;8.662;2022-08-02T14:19:26;2.35;;;1.85;;
40701;SDS011;26387;50.114;8.662;2022-08-02T14:21:52;4.32;;;1.50;;
40701;SDS011;26387;50.114;8.662;2022-08-02T14:24:19;3.10;;;2.00;;
40701;SDS011;26387;50.114;8.662;2022-08-02T14:26:45;3.47;;;2.25;;
40701;SDS011;26387;50.114;8.662;2022-08-02T14:29:12;4.03;;;2.40;;
40701;SDS011;26387;50.114;8.662;2022-08-02T14:31:38;2.78;;;2.58;;
40701;SDS011;26387;50.114;8.662;2022-08-02T14:34:04;2.85;;;2.50;;
40701;SDS011;26387;50.114;8.662;2022-08-02T14:36:30;4.93;;;3.20;;
40701;SDS011;26387;50.114;8.662;2022-08-02T14:38:55;3.15;;;2.97;;
40701;SDS011;26387;50.114;8.662;2022-08-02T14:41:21;4.13;;;3.60;;
40701;SDS011;26387;50.114;8.662;2022-08-02T14:43:47;4.10;;;3.70;;
40701;SDS011;26387;50.114;8.662;2022-08-02T14:46:28;4.50;;;4.20;;
40701;SDS011;26387;50.114;8.662;2022-08-02T14:48:55;4.47;;;4.18;;
40701;SDS011;26387;50.114;8.662;2022-08-02T14:51:20;4.43;;;4.03;;
40701;SDS011;26387;50.114;8.662;2022-08-02T14:53:46;4.20;;;3.80;;
40701;SDS011;26387;50.114;8.662;2022-08-02T14:56:12;3.88;;;3.47;;
40701;SDS011;26387;50.114;8.662;2022-08-02T14:58:38;3.72;;;3.50;;
40701;SDS011;26387;50.114;8.662;2022-08-02T15:01:03;3.30;;;2.97;;
40701;SDS011;26387;50.114;8.662;2022-08-02T15:03:29;2.90;;;2.70;;
40701;SDS011;26387;50.114;8.662;2022-08-02T15:05:54;2.58;;;2.40;;
40701;SDS011;26387;50.114;8.662;2022-08-02T15:08:20;2.55;;;2.35;;
40701;SDS011;26387;50.114;8.662;2022-08-02T15:10:46;3.67;;;2.38;;
40701;SDS011;26387;50.114;8.662;2022-08-02T15:13:12;4.30;;;1.85;;
40701;SDS011;26387;50.114;8.662;2022-08-02T15:15:37;2.17;;;1.90;;
40701;SDS011;26387;50.114;8.662;2022-08-02T15:18:03;3.47;;;1.70;;
40701;SDS011;26387;50.114;8.662;2022-08-02T15:20:29;3.47;;;1.65;;
40701;SDS011;26387;50.114;8.662;2022-08-02T15:22:55;2.28;;;1.60;;
40701;SDS011;26387;50.114;8.662;2022-08-02T15:25:21;1.98;;;1.40;;
40701;SDS011;26387;50.114;8.662;2022-08-02T15:27:47;3.63;;;1.63;;
40701;SDS011;26387;50.114;8.662;2022-08-02T15:30:13;2.00;;;1.58;;